createdAt,value
2023-03-04T00:00:08.568Z,0.00
2023-03-04T00:01:08.531Z,0.00
2023-03-04T00:02:08.592Z,0.00
2023-03-04T00:03:08.567Z,0.00
2023-03-04T00:04:08.493Z,0.00
2023-03-04T00:05:08.452Z,0.00
2023-03-04T00:06:08.436Z,0.00
2023-03-04T00:07:08.402Z,0.00
2023-03-04T00:08:08.389Z,0.00
2023-03-04T00:09:08.365Z,0.00
2023-03-04T00:10:08.347Z,0.00
2023-03-04T00:11:08.322Z,0.00
2023-03-04T00:12:08.304Z,0.00
2023-03-04T00:13:08.280Z,0.00
2023-03-04T00:14:08.266Z,0.00
2023-03-04T00:15:08.238Z,0.00
2023-03-04T00:16:08.255Z,0.00
2023-03-04T00:17:08.210Z,0.00
2023-03-04T00:18:08.192Z,0.00
2023-03-04T00:19:08.163Z,0.00
2023-03-04T00:20:08.145Z,0.00
2023-03-04T00:21:08.120Z,0.00
2023-03-04T00:22:08.106Z,0.00
2023-03-04T00:23:08.086Z,0.00
2023-03-04T00:24:08.052Z,0.00
2023-03-04T00:25:08.032Z,0.00
2023-03-04T00:26:08.011Z,0.00
2023-03-04T00:27:07.998Z,0.00
2023-03-04T00:28:07.978Z,0.00
2023-03-04T00:29:07.943Z,0.00
2023-03-04T00:30:07.940Z,0.00
2023-03-04T00:31:07.898Z,0.00
2023-03-04T00:32:08.043Z,0.00
2023-03-04T00:33:07.876Z,0.00
2023-03-04T00:34:07.856Z,0.00
2023-03-04T00:35:07.819Z,0.00
2023-03-04T00:36:07.803Z,0.00
2023-03-04T00:37:07.776Z,0.00
2023-03-04T00:38:07.758Z,0.00
2023-03-04T00:39:07.733Z,0.00
2023-03-04T00:40:07.722Z,0.00
2023-03-04T00:41:07.696Z,0.00
2023-03-04T00:42:07.672Z,0.00
2023-03-04T00:43:07.657Z,0.00
2023-03-04T00:44:07.649Z,0.00
2023-03-04T00:45:07.614Z,0.00
2023-03-04T00:46:07.662Z,0.00
2023-03-04T00:47:07.567Z,0.00
2023-03-04T00:48:07.548Z,0.00
2023-03-04T00:49:07.530Z,0.00
2023-03-04T00:50:07.507Z,0.00
2023-03-04T00:51:07.482Z,0.00
2023-03-04T00:52:07.461Z,0.00
2023-03-04T00:53:07.440Z,0.00
2023-03-04T00:54:07.416Z,0.00
2023-03-04T00:55:07.397Z,0.00
2023-03-04T00:56:07.378Z,0.00
2023-03-04T00:57:07.352Z,0.00
2023-03-04T00:58:07.330Z,0.00
2023-03-04T00:59:07.316Z,0.00
2023-03-04T01:00:07.285Z,0.00
2023-03-04T01:01:07.293Z,0.00
2023-03-04T01:02:07.317Z,0.00
2023-03-04T01:03:07.225Z,0.00
2023-03-04T01:04:07.197Z,0.00
2023-03-04T01:05:07.175Z,0.00
2023-03-04T01:06:07.158Z,0.00
2023-03-04T01:07:07.146Z,0.00
2023-03-04T01:08:07.134Z,0.00
2023-03-04T01:09:07.145Z,0.00
2023-03-04T01:10:07.069Z,0.00
2023-03-04T01:11:07.048Z,0.00
2023-03-04T01:12:07.028Z,0.00
2023-03-04T01:13:07.005Z,0.00
2023-03-04T01:14:06.985Z,0.00
2023-03-04T01:15:06.967Z,0.00
2023-03-04T01:16:06.947Z,0.00
2023-03-04T01:17:06.932Z,0.00
2023-03-04T01:18:06.909Z,0.00
2023-03-04T01:19:06.875Z,0.00
2023-03-04T01:20:06.863Z,0.00
2023-03-04T01:21:06.833Z,0.00
2023-03-04T01:22:06.813Z,0.00
2023-03-04T01:23:06.794Z,0.00
2023-03-04T01:24:06.769Z,0.00
2023-03-04T01:25:06.752Z,0.00
2023-03-04T01:26:06.724Z,0.00
2023-03-04T01:27:06.710Z,0.00
2023-03-04T01:28:06.683Z,0.00
2023-03-04T01:29:06.665Z,0.00
2023-03-04T01:30:06.641Z,0.00
2023-03-04T01:31:06.662Z,0.00
2023-03-04T01:32:06.632Z,0.00
2023-03-04T01:33:06.580Z,0.00
2023-03-04T01:34:06.556Z,0.00
2023-03-04T01:35:06.534Z,0.00
2023-03-04T01:36:06.514Z,0.00
2023-03-04T01:37:06.492Z,0.00
2023-03-04T01:38:06.471Z,0.00
2023-03-04T01:39:06.450Z,0.00
2023-03-04T01:40:06.429Z,0.00
2023-03-04T01:41:06.409Z,0.00
2023-03-04T01:42:06.390Z,0.00
2023-03-04T01:43:06.363Z,0.00
2023-03-04T01:44:06.355Z,0.00
2023-03-04T01:45:06.327Z,0.00
2023-03-04T01:46:06.394Z,0.00
2023-03-04T01:47:06.282Z,0.00
2023-03-04T01:48:06.256Z,0.00
2023-03-04T01:49:06.292Z,0.00
2023-03-04T01:50:06.217Z,0.00
2023-03-04T01:51:06.210Z,0.00
2023-03-04T01:52:06.179Z,0.00
2023-03-04T01:53:06.151Z,0.00
2023-03-04T01:54:06.131Z,0.00
2023-03-04T01:55:06.127Z,0.00
2023-03-04T01:56:06.086Z,0.00
2023-03-04T01:57:06.064Z,0.00
2023-03-04T01:58:06.044Z,0.00
2023-03-04T01:59:06.025Z,0.00
2023-03-04T02:00:06.002Z,0.00
2023-03-04T02:01:05.979Z,0.00
2023-03-04T02:02:05.969Z,0.00
2023-03-04T02:03:05.945Z,0.00
2023-03-04T02:04:05.982Z,0.00
2023-03-04T02:05:05.900Z,0.00
2023-03-04T02:06:05.874Z,0.00
2023-03-04T02:07:05.850Z,0.00
2023-03-04T02:08:05.854Z,0.00
2023-03-04T02:09:05.805Z,0.00
2023-03-04T02:10:05.807Z,0.00
2023-03-04T02:11:05.774Z,0.00
2023-03-04T02:12:05.741Z,0.00
2023-03-04T02:13:05.730Z,0.00
2023-03-04T02:14:05.743Z,0.00
2023-03-04T02:15:05.706Z,0.00
2023-03-04T02:16:05.774Z,0.00
2023-03-04T02:17:05.660Z,0.00
2023-03-04T02:18:05.621Z,0.00
2023-03-04T02:19:05.595Z,0.00
2023-03-04T02:20:05.580Z,0.00
2023-03-04T02:21:05.552Z,0.00
2023-03-04T02:22:05.538Z,0.00
2023-03-04T02:23:05.513Z,0.00
2023-03-04T02:24:05.493Z,0.00
2023-03-04T02:25:05.469Z,0.00
2023-03-04T02:26:05.450Z,0.00
2023-03-04T02:27:05.429Z,0.00
2023-03-04T02:28:05.406Z,0.00
2023-03-04T02:29:05.386Z,0.00
2023-03-04T02:30:05.369Z,0.00
2023-03-04T02:31:05.382Z,0.00
2023-03-04T02:32:05.359Z,0.00
2023-03-04T02:33:05.315Z,0.00
2023-03-04T02:34:05.280Z,0.00
2023-03-04T02:35:05.266Z,0.00
2023-03-04T02:36:05.239Z,0.00
2023-03-04T02:37:05.218Z,0.00
2023-03-04T02:38:05.197Z,0.00
2023-03-04T02:39:05.191Z,0.00
2023-03-04T02:40:05.162Z,0.00
2023-03-04T02:41:05.137Z,0.00
2023-03-04T02:42:05.124Z,0.00
2023-03-04T02:43:05.106Z,0.00
2023-03-04T02:44:05.078Z,0.00
2023-03-04T02:45:05.055Z,0.00
2023-03-04T02:46:05.036Z,0.00
2023-03-04T02:47:05.022Z,0.00
2023-03-04T02:48:04.997Z,0.00
2023-03-04T02:49:04.975Z,0.00
2023-03-04T02:50:04.954Z,0.00
2023-03-04T02:51:04.930Z,0.00
2023-03-04T02:52:04.917Z,0.00
2023-03-04T02:53:05.112Z,0.00
2023-03-04T02:54:04.892Z,0.00
2023-03-04T02:55:04.858Z,0.00
2023-03-04T02:56:04.833Z,0.00
2023-03-04T02:57:04.813Z,0.00
2023-03-04T02:58:04.793Z,0.00
2023-03-04T02:59:04.770Z,0.00
2023-03-04T03:00:04.752Z,0.00
2023-03-04T03:01:04.742Z,0.00
2023-03-04T03:02:04.832Z,0.00
2023-03-04T03:03:04.773Z,0.00
2023-03-04T03:04:04.680Z,0.00
2023-03-04T03:05:04.658Z,0.00
2023-03-04T03:06:04.704Z,0.00
2023-03-04T03:07:04.612Z,0.00
2023-03-04T03:08:04.594Z,0.00
2023-03-04T03:09:04.574Z,0.00
2023-03-04T03:10:04.566Z,0.00
2023-03-04T03:11:04.544Z,0.00
2023-03-04T03:12:04.513Z,0.00
2023-03-04T03:13:04.504Z,0.00
2023-03-04T03:14:04.489Z,0.00
2023-03-04T03:15:04.460Z,0.00
2023-03-04T03:16:04.549Z,0.00
2023-03-04T03:17:04.415Z,0.00
2023-03-04T03:18:04.395Z,0.00
2023-03-04T03:19:04.377Z,0.00
2023-03-04T03:20:04.362Z,0.00
2023-03-04T03:21:04.338Z,0.00
2023-03-04T03:22:04.317Z,0.00
2023-03-04T03:23:04.300Z,0.00
2023-03-04T03:24:04.278Z,0.00
2023-03-04T03:25:04.263Z,0.00
2023-03-04T03:26:04.236Z,0.00
2023-03-04T03:27:04.220Z,0.00
2023-03-04T03:28:04.199Z,0.00
2023-03-04T03:29:04.178Z,0.00
2023-03-04T03:30:04.158Z,0.00
2023-03-04T03:31:04.146Z,0.00
2023-03-04T03:32:04.154Z,0.00
2023-03-04T03:33:04.105Z,0.00
2023-03-04T03:34:04.078Z,0.00
2023-03-04T03:35:04.069Z,0.00
2023-03-04T03:36:04.152Z,0.00
2023-03-04T03:37:04.039Z,0.00
2023-03-04T03:38:04.000Z,0.00
2023-03-04T03:39:03.982Z,0.00
2023-03-04T03:40:03.963Z,0.00
2023-03-04T03:41:03.952Z,0.00
2023-03-04T03:42:03.927Z,0.00
2023-03-04T03:43:03.904Z,0.00
2023-03-04T03:44:03.883Z,0.00
2023-03-04T03:45:03.873Z,0.00
2023-03-04T03:46:03.870Z,0.00
2023-03-04T03:47:03.830Z,0.00
2023-03-04T03:48:03.807Z,0.00
2023-03-04T03:49:03.798Z,0.00
2023-03-04T03:50:03.780Z,0.00
2023-03-04T03:51:03.753Z,0.00
2023-03-04T03:52:03.737Z,0.00
2023-03-04T03:53:03.727Z,0.00
2023-03-04T03:54:03.693Z,0.00
2023-03-04T03:55:03.671Z,0.00
2023-03-04T03:56:03.654Z,0.00
2023-03-04T03:57:03.634Z,0.00
2023-03-04T03:58:03.617Z,0.00
2023-03-04T03:59:03.596Z,0.00
2023-03-04T04:00:03.578Z,0.00
2023-03-04T04:01:03.563Z,0.00
2023-03-04T04:02:03.637Z,0.00
2023-03-04T04:03:03.646Z,0.00
2023-03-04T04:04:03.500Z,0.00
2023-03-04T04:05:03.495Z,0.00
2023-03-04T04:06:03.461Z,0.00
2023-03-04T04:07:03.439Z,0.00
2023-03-04T04:08:03.421Z,0.00
2023-03-04T04:09:03.416Z,0.00
2023-03-04T04:10:03.392Z,0.00
2023-03-04T04:11:03.377Z,0.00
2023-03-04T04:12:03.343Z,0.00
2023-03-04T04:13:03.327Z,0.00
2023-03-04T04:14:03.307Z,0.00
2023-03-04T04:15:03.284Z,0.00
2023-03-04T04:16:03.265Z,0.00
2023-03-04T04:17:03.246Z,0.00
2023-03-04T04:18:03.232Z,0.00
2023-03-04T04:19:03.211Z,0.00
2023-03-04T04:20:03.187Z,0.00
2023-03-04T04:21:03.170Z,0.00
2023-03-04T04:22:03.152Z,0.00
2023-03-04T04:23:03.156Z,0.00
2023-03-04T04:24:03.112Z,0.00
2023-03-04T04:25:03.102Z,0.00
2023-03-04T04:26:03.073Z,0.00
2023-03-04T04:27:03.062Z,0.00
2023-03-04T04:28:03.033Z,0.00
2023-03-04T04:29:03.014Z,0.00
2023-03-04T04:30:03.005Z,0.00
2023-03-04T04:31:03.060Z,0.00
2023-03-04T04:32:03.096Z,0.00
2023-03-04T04:33:02.946Z,0.00
2023-03-04T04:34:02.928Z,0.00
2023-03-04T04:35:02.898Z,0.00
2023-03-04T04:36:02.881Z,0.00
2023-03-04T04:37:02.859Z,0.00
2023-03-04T04:38:02.837Z,0.00
2023-03-04T04:39:02.821Z,0.00
2023-03-04T04:40:02.817Z,0.00
2023-03-04T04:41:02.782Z,0.00
2023-03-04T04:42:02.760Z,0.00
2023-03-04T04:43:02.760Z,0.00
2023-03-04T04:44:02.729Z,0.00
2023-03-04T04:45:02.704Z,0.00
2023-03-04T04:46:02.750Z,0.00
2023-03-04T04:47:02.665Z,0.00
2023-03-04T04:48:02.643Z,0.00
2023-03-04T04:49:02.629Z,0.00
2023-03-04T04:50:02.626Z,0.00
2023-03-04T04:51:02.665Z,0.00
2023-03-04T04:52:02.590Z,0.00
2023-03-04T04:53:02.558Z,0.00
2023-03-04T04:54:02.542Z,0.00
2023-03-04T04:55:02.528Z,0.00
2023-03-04T04:56:02.512Z,0.00
2023-03-04T04:57:02.473Z,0.00
2023-03-04T04:58:02.458Z,0.00
2023-03-04T04:59:02.438Z,0.00
2023-03-04T05:00:02.434Z,0.00
2023-03-04T05:01:02.418Z,0.00
2023-03-04T05:02:02.389Z,0.00
2023-03-04T05:03:02.424Z,0.00
2023-03-04T05:04:02.342Z,0.00
2023-03-04T05:05:02.327Z,0.00
2023-03-04T05:06:02.305Z,0.00
2023-03-04T05:07:02.290Z,0.00
2023-03-04T05:08:02.266Z,0.00
2023-03-04T05:09:02.258Z,0.00
2023-03-04T05:10:02.228Z,0.00
2023-03-04T05:11:02.215Z,0.00
2023-03-04T05:12:02.196Z,0.00
2023-03-04T05:13:02.174Z,0.00
2023-03-04T05:14:02.152Z,0.00
2023-03-04T05:15:02.163Z,0.00
2023-03-04T05:16:02.142Z,0.00
2023-03-04T05:17:02.099Z,0.00
2023-03-04T05:18:02.076Z,0.00
2023-03-04T05:19:02.061Z,0.00
2023-03-04T05:20:02.052Z,0.00
2023-03-04T05:21:02.032Z,0.00
2023-03-04T05:22:02.013Z,0.00
2023-03-04T05:23:01.989Z,0.00
2023-03-04T05:24:01.966Z,0.00
2023-03-04T05:25:01.948Z,0.00
2023-03-04T05:26:01.927Z,0.00
2023-03-04T05:27:01.909Z,0.00
2023-03-04T05:28:01.892Z,0.00
2023-03-04T05:29:01.869Z,0.00
2023-03-04T05:30:01.851Z,0.00
2023-03-04T05:31:01.883Z,0.00
2023-03-04T05:32:01.873Z,0.00
2023-03-04T05:33:01.803Z,0.00
2023-03-04T05:34:01.786Z,0.00
2023-03-04T05:35:01.759Z,0.00
2023-03-04T05:36:01.749Z,0.00
2023-03-04T05:37:01.725Z,0.00
2023-03-04T05:38:01.699Z,0.00
2023-03-04T05:39:01.686Z,0.00
2023-03-04T05:40:01.664Z,0.00
2023-03-04T05:41:01.648Z,0.00
2023-03-04T05:42:01.628Z,0.00
2023-03-04T05:43:01.606Z,0.00
2023-03-04T05:44:01.585Z,0.00
2023-03-04T05:45:01.605Z,4.00
2023-03-04T05:46:01.569Z,4.00
2023-03-04T05:47:01.530Z,0.00
2023-03-04T05:48:01.513Z,0.00
2023-03-04T05:49:01.492Z,4.00
2023-03-04T05:50:01.475Z,4.00
2023-03-04T05:51:01.457Z,4.00
2023-03-04T05:52:01.450Z,4.00
2023-03-04T05:53:01.422Z,4.00
2023-03-04T05:54:01.406Z,8.00
2023-03-04T05:55:01.377Z,4.00
2023-03-04T05:56:01.363Z,8.00
2023-03-04T05:57:01.340Z,8.00
2023-03-04T05:58:01.326Z,8.00
2023-03-04T05:59:01.307Z,8.00
2023-03-04T06:00:01.285Z,12.00
2023-03-04T06:01:01.265Z,8.00
2023-03-04T06:02:01.259Z,12.00
2023-03-04T06:03:01.331Z,12.00
2023-03-04T06:04:01.239Z,16.00
2023-03-04T06:05:01.190Z,16.00
2023-03-04T06:06:01.180Z,20.00
2023-03-04T06:07:01.162Z,20.00
2023-03-04T06:08:01.136Z,20.00
2023-03-04T06:09:01.124Z,24.00
2023-03-04T06:10:01.103Z,24.00
2023-03-04T06:11:01.077Z,28.00
2023-03-04T06:12:01.056Z,28.00
2023-03-04T06:13:01.038Z,32.00
2023-03-04T06:14:01.043Z,32.00
2023-03-04T06:15:01.000Z,36.00
2023-03-04T06:16:01.031Z,40.00
2023-03-04T06:17:00.963Z,36.00
2023-03-04T06:18:00.948Z,44.00
2023-03-04T06:19:00.926Z,44.00
2023-03-04T06:20:00.912Z,48.00
2023-03-04T06:21:00.902Z,48.00
2023-03-04T06:22:00.874Z,52.00
2023-03-04T06:23:00.850Z,52.00
2023-03-04T06:24:00.831Z,60.00
2023-03-04T06:25:00.813Z,64.00
2023-03-04T06:26:00.834Z,64.00
2023-03-04T06:27:00.778Z,68.00
2023-03-04T06:28:00.763Z,68.00
2023-03-04T06:29:00.741Z,72.00
2023-03-04T06:30:00.727Z,72.00
2023-03-04T06:31:00.770Z,72.00
2023-03-04T06:32:00.733Z,76.00
2023-03-04T06:33:00.670Z,76.00
2023-03-04T06:34:00.646Z,84.00
2023-03-04T06:35:00.627Z,88.00
2023-03-04T06:36:00.655Z,92.00
2023-03-04T06:37:00.608Z,92.00
2023-03-04T06:38:00.575Z,92.00
2023-03-04T06:39:00.556Z,96.00
2023-03-04T06:40:00.549Z,92.00
2023-03-04T06:41:00.512Z,100.00
2023-03-04T06:42:00.508Z,104.00
2023-03-04T06:43:00.493Z,108.00
2023-03-04T06:44:00.453Z,112.00
2023-03-04T06:45:00.434Z,116.00
2023-03-04T06:46:00.420Z,120.00
2023-03-04T06:47:00.511Z,124.00
2023-03-04T06:48:00.387Z,124.00
2023-03-04T06:49:00.362Z,124.00
2023-03-04T06:50:00.346Z,128.00
2023-03-04T06:51:00.325Z,132.00
2023-03-04T06:52:00.312Z,140.00
2023-03-04T06:53:00.288Z,140.00
2023-03-04T06:54:00.270Z,144.00
2023-03-04T06:55:00.258Z,148.00
2023-03-04T06:56:00.246Z,148.00
2023-03-04T06:57:00.217Z,152.00
2023-03-04T06:58:00.209Z,152.00
2023-03-04T06:59:00.191Z,156.00
2023-03-04T07:00:00.159Z,156.00
2023-03-04T07:01:00.230Z,164.00
2023-03-04T07:02:00.128Z,160.00
2023-03-04T07:03:00.121Z,164.00
2023-03-04T07:04:00.199Z,168.00
2023-03-04T07:05:00.066Z,172.00
2023-03-04T07:06:00.051Z,176.00
2023-03-04T07:07:00.036Z,184.00
2023-03-04T07:08:00.010Z,188.00
2023-03-04T07:08:59.992Z,192.00
2023-03-04T07:09:59.966Z,200.00
2023-03-04T07:10:59.948Z,204.00
2023-03-04T07:11:59.932Z,212.00
2023-03-04T07:12:59.924Z,220.00
2023-03-04T07:13:59.899Z,220.00
2023-03-04T07:14:59.888Z,224.00
2023-03-04T07:15:59.865Z,236.00
2023-03-04T07:16:59.854Z,236.00
2023-03-04T07:17:59.823Z,236.00
2023-03-04T07:18:59.801Z,244.00
2023-03-04T07:19:59.792Z,248.00
2023-03-04T07:20:59.782Z,260.00
2023-03-04T07:21:59.751Z,264.00
2023-03-04T07:22:59.731Z,268.00
2023-03-04T07:23:59.712Z,276.00
2023-03-04T07:24:59.700Z,288.00
2023-03-04T07:25:59.840Z,296.00
2023-03-04T07:26:59.659Z,308.00
2023-03-04T07:27:59.638Z,316.00
2023-03-04T07:28:59.641Z,316.00
2023-03-04T07:29:59.602Z,332.00
2023-03-04T07:30:59.684Z,340.00
2023-03-04T07:31:59.658Z,348.00
2023-03-04T07:32:59.553Z,348.00
2023-03-04T07:33:59.537Z,360.00
2023-03-04T07:34:59.508Z,376.00
2023-03-04T07:35:59.492Z,368.00
2023-03-04T07:36:59.473Z,360.00
2023-03-04T07:37:59.460Z,360.00
2023-03-04T07:38:59.442Z,368.00
2023-03-04T07:39:59.417Z,372.00
2023-03-04T07:40:59.428Z,388.00
2023-03-04T07:41:59.386Z,400.00
2023-03-04T07:42:59.373Z,408.00
2023-03-04T07:43:59.354Z,412.00
2023-03-04T07:44:59.347Z,408.00
2023-03-04T07:45:59.385Z,420.00
2023-03-04T07:46:59.295Z,432.00
2023-03-04T07:47:59.278Z,440.00
2023-03-04T07:48:59.257Z,440.00
2023-03-04T07:49:59.237Z,444.00
2023-03-04T07:50:59.225Z,452.00
2023-03-04T07:51:59.197Z,452.00
2023-03-04T07:52:59.183Z,448.00
2023-03-04T07:53:59.171Z,444.00
2023-03-04T07:54:59.154Z,456.00
2023-03-04T07:56:00.466Z,460.00
2023-03-04T07:56:59.115Z,464.00
2023-03-04T07:57:59.094Z,464.00
2023-03-04T07:58:59.075Z,464.00
2023-03-04T07:59:59.055Z,460.00
2023-03-04T08:00:59.042Z,460.00
2023-03-04T08:01:59.017Z,476.00
2023-03-04T08:02:59.001Z,484.00
2023-03-04T08:03:59.049Z,488.00
2023-03-04T08:04:58.969Z,492.00
2023-03-04T08:05:58.959Z,504.00
2023-03-04T08:06:58.931Z,524.00
2023-03-04T08:07:58.928Z,536.00
2023-03-04T08:08:58.901Z,540.00
2023-03-04T08:09:58.878Z,540.00
2023-03-04T08:10:58.873Z,544.00
2023-03-04T08:11:58.847Z,560.00
2023-03-04T08:12:58.844Z,572.00
2023-03-04T08:13:58.819Z,568.00
2023-03-04T08:14:58.786Z,580.00
2023-03-04T08:15:58.903Z,588.00
2023-03-04T08:16:58.753Z,604.00
2023-03-04T08:17:59.776Z,632.00
2023-03-04T08:18:58.723Z,632.00
2023-03-04T08:19:58.843Z,632.00
2023-03-04T08:20:58.683Z,632.00
2023-03-04T08:21:58.662Z,636.00
2023-03-04T08:22:58.645Z,636.00
2023-03-04T08:23:58.678Z,640.00
2023-03-04T08:24:58.693Z,652.00
2023-03-04T08:25:58.589Z,672.00
2023-03-04T08:26:58.568Z,676.00
2023-03-04T08:27:58.556Z,684.00
2023-03-04T08:28:58.532Z,696.00
2023-03-04T08:29:58.520Z,704.00
2023-03-04T08:30:58.519Z,704.00
2023-03-04T08:31:58.683Z,696.00
2023-03-04T08:32:58.506Z,692.00
2023-03-04T08:33:58.458Z,700.00
2023-03-04T08:34:58.441Z,708.00
2023-03-04T08:35:58.433Z,704.00
2023-03-04T08:36:58.392Z,708.00
2023-03-04T08:37:59.716Z,708.00
2023-03-04T08:38:58.356Z,708.00
2023-03-04T08:39:58.347Z,704.00
2023-03-04T08:40:58.325Z,704.00
2023-03-04T08:41:58.304Z,704.00
2023-03-04T08:42:58.286Z,708.00
2023-03-04T08:43:58.286Z,716.00
2023-03-04T08:44:58.253Z,728.00
2023-03-04T08:45:58.261Z,736.00
2023-03-04T08:46:58.215Z,724.00
2023-03-04T08:47:58.197Z,720.00
2023-03-04T08:48:58.180Z,720.00
2023-03-04T08:49:58.176Z,720.00
2023-03-04T08:50:58.152Z,716.00
2023-03-04T08:51:58.134Z,700.00
2023-03-04T08:52:58.115Z,696.00
2023-03-04T08:53:58.099Z,704.00
2023-03-04T08:54:58.076Z,700.00
2023-03-04T08:55:58.062Z,684.00
2023-03-04T08:56:58.044Z,672.00
2023-03-04T08:57:58.120Z,672.00
2023-03-04T08:58:58.007Z,680.00
2023-03-04T08:59:57.994Z,696.00
2023-03-04T09:00:57.973Z,704.00
2023-03-04T09:01:57.974Z,712.00
2023-03-04T09:02:57.940Z,720.00
2023-03-04T09:03:58.014Z,724.00
2023-03-04T09:04:57.901Z,732.00
2023-03-04T09:05:57.884Z,740.00
2023-03-04T09:06:57.868Z,764.00
2023-03-04T09:07:57.852Z,788.00
2023-03-04T09:08:57.837Z,792.00
2023-03-04T09:09:57.826Z,784.00
2023-03-04T09:10:57.797Z,792.00
2023-03-04T09:11:57.788Z,816.00
2023-03-04T09:12:57.768Z,832.00
2023-03-04T09:13:57.784Z,840.00
2023-03-04T09:15:10.313Z,848.00
2023-03-04T09:15:57.812Z,848.00
2023-03-04T09:16:57.697Z,852.00
2023-03-04T09:17:57.695Z,860.00
2023-03-04T09:18:57.661Z,472.00
2023-03-04T09:19:57.655Z,492.00
2023-03-04T09:20:57.636Z,504.00
2023-03-04T09:21:57.615Z,920.00
2023-03-04T09:22:57.595Z,924.00
2023-03-04T09:23:57.576Z,940.00
2023-03-04T09:24:57.558Z,960.00
2023-03-04T09:25:57.541Z,984.00
2023-03-04T09:26:57.521Z,1032.00
2023-03-04T09:27:57.509Z,1084.00
2023-03-04T09:28:57.508Z,1140.00
2023-03-04T09:29:57.472Z,1188.00
2023-03-04T09:30:57.532Z,1216.00
2023-03-04T09:31:57.462Z,1224.00
2023-03-04T09:32:57.423Z,1240.00
2023-03-04T09:33:57.403Z,1236.00
2023-03-04T09:34:57.392Z,1208.00
2023-03-04T09:35:57.435Z,1188.00
2023-03-04T09:36:57.356Z,1172.00
2023-03-04T09:37:57.334Z,1152.00
2023-03-04T09:38:57.319Z,1132.00
2023-03-04T09:39:57.306Z,1120.00
2023-03-04T09:40:57.285Z,1132.00
2023-03-04T09:41:57.274Z,1152.00
2023-03-04T09:42:57.262Z,1160.00
2023-03-04T09:43:57.244Z,1168.00
2023-03-04T09:44:57.225Z,1172.00
2023-03-04T09:45:57.215Z,1188.00
2023-03-04T09:46:57.200Z,1208.00
2023-03-04T09:47:57.169Z,1208.00
2023-03-04T09:48:57.165Z,1204.00
2023-03-04T09:49:57.134Z,1224.00
2023-03-04T09:50:57.124Z,1268.00
2023-03-04T09:51:57.104Z,1292.00
2023-03-04T09:52:57.084Z,1292.00
2023-03-04T09:53:57.069Z,1296.00
2023-03-04T09:54:57.052Z,1348.00
2023-03-04T09:55:57.034Z,1400.00
2023-03-04T09:56:57.017Z,1404.00
2023-03-04T09:57:57.000Z,1392.00
2023-03-04T09:58:56.993Z,1416.00
2023-03-04T09:59:56.970Z,1440.00
2023-03-04T10:00:57.051Z,1456.00
2023-03-04T10:01:56.939Z,1468.00
2023-03-04T10:02:56.919Z,1476.00
2023-03-04T10:03:56.949Z,1472.00
2023-03-04T10:04:56.968Z,1460.00
2023-03-04T10:05:56.873Z,1444.00
2023-03-04T10:06:56.863Z,1444.00
2023-03-04T10:07:56.841Z,1444.00
2023-03-04T10:08:56.826Z,1444.00
2023-03-04T10:09:56.804Z,1440.00
2023-03-04T10:10:56.870Z,1436.00
2023-03-04T10:11:56.770Z,1432.00
2023-03-04T10:12:56.759Z,1436.00
2023-03-04T10:13:56.737Z,1436.00
2023-03-04T10:14:56.724Z,1412.00
2023-03-04T10:15:56.736Z,1404.00
2023-03-04T10:16:56.707Z,1412.00
2023-03-04T10:17:56.675Z,1408.00
2023-03-04T10:18:56.671Z,1404.00
2023-03-04T10:19:56.673Z,1416.00
2023-03-04T10:20:56.625Z,1444.00
2023-03-04T10:21:56.609Z,1460.00
2023-03-04T10:22:56.657Z,1472.00
2023-03-04T10:23:59.402Z,1496.00
2023-03-04T10:24:56.568Z,1508.00
2023-03-04T10:25:56.605Z,1496.00
2023-03-04T10:26:56.529Z,1468.00
2023-03-04T10:27:56.521Z,1448.00
2023-03-04T10:28:56.493Z,1456.00
2023-03-04T10:29:56.478Z,1476.00
2023-03-04T10:30:56.473Z,1504.00
2023-03-04T10:31:56.652Z,1520.00
2023-03-04T10:32:56.424Z,1528.00
2023-03-04T10:33:56.418Z,1532.00
2023-03-04T10:34:56.390Z,1532.00
2023-03-04T10:35:56.420Z,1540.00
2023-03-04T10:36:56.358Z,1548.00
2023-03-04T10:37:56.339Z,1564.00
2023-03-04T10:38:56.320Z,1604.00
2023-03-04T10:39:56.310Z,1624.00
2023-03-04T10:40:56.292Z,1616.00
2023-03-04T10:41:56.326Z,1620.00
2023-03-04T10:42:56.278Z,1636.00
2023-03-04T10:43:56.246Z,1668.00
2023-03-04T10:44:56.226Z,1708.00
2023-03-04T10:45:56.224Z,1696.00
2023-03-04T10:46:56.193Z,1648.00
2023-03-04T10:47:56.195Z,1584.00
2023-03-04T10:48:56.156Z,1552.00
2023-03-04T10:49:56.149Z,1548.00
2023-03-04T10:50:56.125Z,1556.00
2023-03-04T10:51:57.676Z,1580.00
2023-03-04T10:52:56.103Z,1596.00
2023-03-04T10:53:56.086Z,1596.00
2023-03-04T10:54:56.068Z,1584.00
2023-03-04T10:55:56.044Z,1580.00
2023-03-04T10:56:56.029Z,1620.00
2023-03-04T10:57:57.871Z,1668.00
2023-03-04T10:58:56.023Z,1708.00
2023-03-04T10:59:55.996Z,1720.00
2023-03-04T11:00:55.990Z,1708.00
2023-03-04T11:01:55.946Z,1696.00
2023-03-04T11:02:55.929Z,1668.00
2023-03-04T11:03:55.956Z,1644.00
2023-03-04T11:04:55.898Z,1632.00
2023-03-04T11:05:55.882Z,1604.00
2023-03-04T11:06:55.868Z,1604.00
2023-03-04T11:07:57.544Z,1620.00
2023-03-04T11:08:55.855Z,1640.00
2023-03-04T11:09:58.337Z,1696.00
2023-03-04T11:10:55.797Z,1740.00
2023-03-04T11:11:55.789Z,1716.00
2023-03-04T11:12:55.779Z,1672.00
2023-03-04T11:13:55.756Z,1636.00
2023-03-04T11:14:55.815Z,1624.00
2023-03-04T11:15:58.141Z,1636.00
2023-03-04T11:16:55.800Z,1644.00
2023-03-04T11:17:55.695Z,1636.00
2023-03-04T11:18:55.676Z,1612.00
2023-03-04T11:19:55.656Z,1588.00
2023-03-04T11:20:55.648Z,1580.00
2023-03-04T11:21:55.627Z,1568.00
2023-03-04T11:22:55.619Z,1556.00
2023-03-04T11:23:55.602Z,1532.00
2023-03-04T11:24:55.572Z,1516.00
2023-03-04T11:25:55.563Z,1492.00
2023-03-04T11:26:55.546Z,1472.00
2023-03-04T11:27:55.534Z,1464.00
2023-03-04T11:28:55.538Z,1468.00
2023-03-04T11:29:55.501Z,1488.00
2023-03-04T11:30:55.492Z,1492.00
2023-03-04T11:31:55.720Z,1476.00
2023-03-04T11:32:55.452Z,1460.00
2023-03-04T11:33:55.439Z,1420.00
2023-03-04T11:34:55.419Z,1408.00
2023-03-04T11:35:55.414Z,1392.00
2023-03-04T11:36:55.395Z,1400.00
2023-03-04T11:37:55.381Z,1400.00
2023-03-04T11:38:55.380Z,1388.00
2023-03-04T11:39:55.356Z,1368.00
2023-03-04T11:40:55.340Z,1356.00
2023-03-04T11:41:55.329Z,1340.00
2023-03-04T11:42:55.326Z,1336.00
2023-03-04T11:43:55.300Z,1348.00
2023-03-04T11:44:55.286Z,1360.00
2023-03-04T11:45:55.379Z,1376.00
2023-03-04T11:46:55.271Z,1368.00
2023-03-04T11:47:55.245Z,1340.00
2023-03-04T11:48:55.237Z,1344.00
2023-03-04T11:49:55.220Z,1336.00
2023-03-04T11:50:55.199Z,1312.00
2023-03-04T11:51:55.207Z,1292.00
2023-03-04T11:52:55.172Z,1276.00
2023-03-04T11:53:55.156Z,1268.00
2023-03-04T11:54:55.138Z,1256.00
2023-03-04T11:55:55.162Z,1252.00
2023-03-04T11:56:55.096Z,1244.00
2023-03-04T11:57:55.079Z,1240.00
2023-03-04T11:58:55.064Z,1268.00
2023-03-04T11:59:55.070Z,1324.00
2023-03-04T12:00:55.048Z,1368.00
2023-03-04T12:01:55.022Z,1388.00
2023-03-04T12:02:55.023Z,1380.00
2023-03-04T12:03:55.073Z,1380.00
2023-03-04T12:04:55.035Z,1384.00
2023-03-04T12:05:55.119Z,1376.00
2023-03-04T12:06:54.946Z,1360.00
2023-03-04T12:07:54.928Z,1352.00
2023-03-04T12:08:54.915Z,1340.00
2023-03-04T12:09:54.894Z,1300.00
2023-03-04T12:10:54.909Z,1248.00
2023-03-04T12:11:54.864Z,1232.00
2023-03-04T12:12:54.851Z,1228.00
2023-03-04T12:13:54.833Z,1200.00
2023-03-04T12:14:54.816Z,1180.00
2023-03-04T12:15:54.884Z,1196.00
2023-03-04T12:16:54.790Z,1212.00
2023-03-04T12:17:54.783Z,1212.00
2023-03-04T12:18:54.780Z,1196.00
2023-03-04T12:19:54.768Z,1200.00
2023-03-04T12:20:54.724Z,1220.00
2023-03-04T12:21:54.721Z,1232.00
2023-03-04T12:22:54.708Z,1232.00
2023-03-04T12:23:54.676Z,1228.00
2023-03-04T12:24:54.659Z,1224.00
2023-03-04T12:25:54.645Z,1220.00
2023-03-04T12:26:54.633Z,1212.00
2023-03-04T12:27:54.637Z,1196.00
2023-03-04T12:28:54.606Z,1176.00
2023-03-04T12:29:54.580Z,1168.00
2023-03-04T12:30:54.681Z,1168.00
2023-03-04T12:31:54.548Z,1168.00
2023-03-04T12:32:54.538Z,1184.00
2023-03-04T12:33:54.518Z,1204.00
2023-03-04T12:34:54.504Z,1200.00
2023-03-04T12:35:54.602Z,1176.00
2023-03-04T12:36:54.476Z,1152.00
2023-03-04T12:37:54.448Z,1148.00
2023-03-04T12:38:54.441Z,1152.00
2023-03-04T12:39:54.431Z,1136.00
2023-03-04T12:40:54.409Z,1100.00
2023-03-04T12:41:54.396Z,1088.00
2023-03-04T12:42:54.383Z,1080.00
2023-03-04T12:43:54.365Z,1080.00
2023-03-04T12:44:54.348Z,1088.00
2023-03-04T12:45:54.321Z,1100.00